sensor_id;sensor_type;location;lat;lon;timestamp;temperature;humidity
13245;DHT22;6689;53.400;12.486;2022-12-20T00:00:06;4.90;12.30
13245;DHT22;6689;53.400;12.486;2022-12-20T00:02:36;4.80;5.20
13245;DHT22;6689;53.400;12.486;2022-12-20T00:05:04;4.80;10.50
13245;DHT22;6689;53.400;12.486;2022-12-20T00:07:32;4.80;6.30
13245;DHT22;6689;53.400;12.486;2022-12-20T00:09:59;4.80;13.30
13245;DHT22;6689;53.400;12.486;2022-12-20T00:12:26;4.70;1.00
13245;DHT22;6689;53.400;12.486;2022-12-20T00:14:53;4.70;1.00
13245;DHT22;6689;53.400;12.486;2022-12-20T00:17:20;4.70;1.00
13245;DHT22;6689;53.400;12.486;2022-12-20T00:19:49;4.70;1.00
13245;DHT22;6689;53.400;12.486;2022-12-20T00:22:16;4.70;3.40
13245;DHT22;6689;53.400;12.486;2022-12-20T00:24:44;4.60;9.00
13245;DHT22;6689;53.400;12.486;2022-12-20T00:27:11;4.70;4.30
13245;DHT22;6689;53.400;12.486;2022-12-20T00:29:41;4.70;4.90
13245;DHT22;6689;53.400;12.486;2022-12-20T00:32:09;4.60;5.50
13245;DHT22;6689;53.400;12.486;2022-12-20T00:34:36;4.70;28.50
13245;DHT22;6689;53.400;12.486;2022-12-20T00:37:05;4.70;34.80
13245;DHT22;6689;53.400;12.486;2022-12-20T00:39:32;4.70;22.60
13245;DHT22;6689;53.400;12.486;2022-12-20T00:41:59;4.70;27.40
13245;DHT22;6689;53.400;12.486;2022-12-20T00:44:27;4.70;25.50
13245;DHT22;6689;53.400;12.486;2022-12-20T00:46:54;4.80;29.30
13245;DHT22;6689;53.400;12.486;2022-12-20T00:49:21;4.90;28.00
13245;DHT22;6689;53.400;12.486;2022-12-20T00:51:48;4.80;25.70
13245;DHT22;6689;53.400;12.486;2022-12-20T00:54:17;4.80;7.20
13245;DHT22;6689;53.400;12.486;2022-12-20T00:56:45;4.80;2.70
13245;DHT22;6689;53.400;12.486;2022-12-20T00:59:12;4.80;1.00
13245;DHT22;6689;53.400;12.486;2022-12-20T01:01:39;4.80;1.00
13245;DHT22;6689;53.400;12.486;2022-12-20T01:04:06;4.80;1.00
13245;DHT22;6689;53.400;12.486;2022-12-20T01:06:33;4.80;1.00
13245;DHT22;6689;53.400;12.486;2022-12-20T01:09:01;4.80;1.00
13245;DHT22;6689;53.400;12.486;2022-12-20T01:11:32;4.80;1.00
13245;DHT22;6689;53.400;12.486;2022-12-20T01:14:01;4.80;1.00
13245;DHT22;6689;53.400;12.486;2022-12-20T01:16:30;4.70;1.00
13245;DHT22;6689;53.400;12.486;2022-12-20T01:18:58;4.70;1.00
13245;DHT22;6689;53.400;12.486;2022-12-20T01:21:26;4.70;1.00
13245;DHT22;6689;53.400;12.486;2022-12-20T01:23:55;4.70;1.00
13245;DHT22;6689;53.400;12.486;2022-12-20T01:26:24;4.70;1.00
13245;DHT22;6689;53.400;12.486;2022-12-20T01:28:56;4.70;1.00
13245;DHT22;6689;53.400;12.486;2022-12-20T01:31:24;4.70;1.00
13245;DHT22;6689;53.400;12.486;2022-12-20T01:33:52;4.70;1.00
13245;DHT22;6689;53.400;12.486;2022-12-20T01:36:21;4.70;1.00
13245;DHT22;6689;53.400;12.486;2022-12-20T01:39:00;4.70;1.00
13245;DHT22;6689;53.400;12.486;2022-12-20T01:41:29;4.60;1.00
13245;DHT22;6689;53.400;12.486;2022-12-20T01:44:00;4.60;1.00
13245;DHT22;6689;53.400;12.486;2022-12-20T01:46:29;4.60;1.00
13245;DHT22;6689;53.400;12.486;2022-12-20T01:49:00;4.70;1.00
13245;DHT22;6689;53.400;12.486;2022-12-20T01:51:31;4.60;1.00
13245;DHT22;6689;53.400;12.486;2022-12-20T01:54:03;4.60;1.00
13245;DHT22;6689;53.400;12.486;2022-12-20T01:56:32;4.60;1.00
13245;DHT22;6689;53.400;12.486;2022-12-20T01:59:01;4.60;1.00
13245;DHT22;6689;53.400;12.486;2022-12-20T02:01:29;4.60;1.00
13245;DHT22;6689;53.400;12.486;2022-12-20T02:03:56;4.60;1.00
13245;DHT22;6689;53.400;12.486;2022-12-20T02:06:25;4.70;1.00
13245;DHT22;6689;53.400;12.486;2022-12-20T02:08:56;4.70;1.00
13245;DHT22;6689;53.400;12.486;2022-12-20T02:11:49;4.70;1.00
13245;DHT22;6689;53.400;12.486;2022-12-20T02:14:35;4.70;1.00
13245;DHT22;6689;53.400;12.486;2022-12-20T02:17:14;4.70;1.00
13245;DHT22;6689;53.400;12.486;2022-12-20T02:22:56;4.80;1.00
13245;DHT22;6689;53.400;12.486;2022-12-20T02:25:45;4.70;1.00
13245;DHT22;6689;53.400;12.486;2022-12-20T02:28:39;4.70;1.00
13245;DHT22;6689;53.400;12.486;2022-12-20T02:31:12;4.60;1.00
13245;DHT22;6689;53.400;12.486;2022-12-20T02:33:41;4.70;1.00
13245;DHT22;6689;53.400;12.486;2022-12-20T02:36:09;4.60;1.00
13245;DHT22;6689;53.400;12.486;2022-12-20T02:38:37;4.70;1.00
13245;DHT22;6689;53.400;12.486;2022-12-20T02:41:09;4.60;1.00
13245;DHT22;6689;53.400;12.486;2022-12-20T02:43:40;4.70;1.00
13245;DHT22;6689;53.400;12.486;2022-12-20T02:46:27;4.70;1.00
13245;DHT22;6689;53.400;12.486;2022-12-20T02:48:59;4.70;1.00
13245;DHT22;6689;53.400;12.486;2022-12-20T02:51:28;4.60;1.00
13245;DHT22;6689;53.400;12.486;2022-12-20T02:53:58;4.70;1.00
13245;DHT22;6689;53.400;12.486;2022-12-20T02:56:29;4.60;1.00
13245;DHT22;6689;53.400;12.486;2022-12-20T02:59:01;4.70;1.00
13245;DHT22;6689;53.400;12.486;2022-12-20T03:01:36;4.70;1.00
13245;DHT22;6689;53.400;12.486;2022-12-20T03:04:06;4.70;1.00
13245;DHT22;6689;53.400;12.486;2022-12-20T03:06:34;4.70;1.00
13245;DHT22;6689;53.400;12.486;2022-12-20T03:09:02;4.70;1.00
13245;DHT22;6689;53.400;12.486;2022-12-20T03:11:29;4.70;1.00
13245;DHT22;6689;53.400;12.486;2022-12-20T03:13:57;4.70;1.00
13245;DHT22;6689;53.400;12.486;2022-12-20T03:16:24;4.70;1.00
13245;DHT22;6689;53.400;12.486;2022-12-20T03:18:53;4.70;1.00
13245;DHT22;6689;53.400;12.486;2022-12-20T03:21:20;4.70;1.00
13245;DHT22;6689;53.400;12.486;2022-12-20T03:23:47;4.80;1.00
13245;DHT22;6689;53.400;12.486;2022-12-20T03:26:14;4.80;1.00
13245;DHT22;6689;53.400;12.486;2022-12-20T03:28:42;4.70;1.00
13245;DHT22;6689;53.400;12.486;2022-12-20T03:31:09;4.80;1.00
13245;DHT22;6689;53.400;12.486;2022-12-20T03:33:36;4.80;1.00
13245;DHT22;6689;53.400;12.486;2022-12-20T03:36:05;4.80;1.00
13245;DHT22;6689;53.400;12.486;2022-12-20T03:38:33;4.80;1.00
13245;DHT22;6689;53.400;12.486;2022-12-20T03:41:00;4.80;1.00
13245;DHT22;6689;53.400;12.486;2022-12-20T03:43:27;4.80;1.00
13245;DHT22;6689;53.400;12.486;2022-12-20T03:45:55;4.90;1.00
13245;DHT22;6689;53.400;12.486;2022-12-20T03:48:22;4.90;1.00
13245;DHT22;6689;53.400;12.486;2022-12-20T03:50:49;4.80;1.00
13245;DHT22;6689;53.400;12.486;2022-12-20T03:53:19;4.90;1.00
13245;DHT22;6689;53.400;12.486;2022-12-20T03:55:46;4.90;1.00
13245;DHT22;6689;53.400;12.486;2022-12-20T03:58:13;4.90;1.00
13245;DHT22;6689;53.400;12.486;2022-12-20T04:00:41;4.80;1.00
13245;DHT22;6689;53.400;12.486;2022-12-20T04:03:08;4.80;1.00
13245;DHT22;6689;53.400;12.486;2022-12-20T04:05:36;4.80;1.00
13245;DHT22;6689;53.400;12.486;2022-12-20T04:08:04;4.70;1.00
13245;DHT22;6689;53.400;12.486;2022-12-20T04:10:40;4.80;1.00
13245;DHT22;6689;53.400;12.486;2022-12-20T04:13:21;4.80;1.00
13245;DHT22;6689;53.400;12.486;2022-12-20T04:15:48;4.80;1.00
13245;DHT22;6689;53.400;12.486;2022-12-20T04:18:15;4.80;1.00
13245;DHT22;6689;53.400;12.486;2022-12-20T04:20:44;4.80;1.00
13245;DHT22;6689;53.400;12.486;2022-12-20T04:23:12;4.80;1.00
13245;DHT22;6689;53.400;12.486;2022-12-20T04:25:40;4.80;1.00
13245;DHT22;6689;53.400;12.486;2022-12-20T04:28:08;4.90;1.00
13245;DHT22;6689;53.400;12.486;2022-12-20T04:30:35;4.80;1.00
13245;DHT22;6689;53.400;12.486;2022-12-20T04:33:03;4.90;1.00
13245;DHT22;6689;53.400;12.486;2022-12-20T04:35:30;4.90;1.00
13245;DHT22;6689;53.400;12.486;2022-12-20T04:37:57;4.90;1.00
13245;DHT22;6689;53.400;12.486;2022-12-20T04:40:25;4.90;1.00
13245;DHT22;6689;53.400;12.486;2022-12-20T04:42:53;5.00;1.00
13245;DHT22;6689;53.400;12.486;2022-12-20T04:45:20;5.00;1.00
13245;DHT22;6689;53.400;12.486;2022-12-20T04:47:48;5.00;1.00
13245;DHT22;6689;53.400;12.486;2022-12-20T04:50:15;5.00;1.00
13245;DHT22;6689;53.400;12.486;2022-12-20T04:52:43;5.10;1.00
13245;DHT22;6689;53.400;12.486;2022-12-20T04:55:28;5.10;1.00
13245;DHT22;6689;53.400;12.486;2022-12-20T04:57:57;5.10;1.00
13245;DHT22;6689;53.400;12.486;2022-12-20T05:00:24;5.00;1.00
13245;DHT22;6689;53.400;12.486;2022-12-20T05:02:51;5.00;1.00
13245;DHT22;6689;53.400;12.486;2022-12-20T05:05:18;5.10;1.00
13245;DHT22;6689;53.400;12.486;2022-12-20T05:07:46;5.10;1.00
13245;DHT22;6689;53.400;12.486;2022-12-20T05:10:13;5.10;1.00
13245;DHT22;6689;53.400;12.486;2022-12-20T05:12:40;5.10;1.00
13245;DHT22;6689;53.400;12.486;2022-12-20T05:15:10;5.10;1.00
13245;DHT22;6689;53.400;12.486;2022-12-20T05:17:37;5.10;1.00
13245;DHT22;6689;53.400;12.486;2022-12-20T05:20:08;5.10;1.00
13245;DHT22;6689;53.400;12.486;2022-12-20T05:22:35;5.10;1.00
13245;DHT22;6689;53.400;12.486;2022-12-20T05:25:20;5.10;1.00
13245;DHT22;6689;53.400;12.486;2022-12-20T05:28:04;5.10;1.00
13245;DHT22;6689;53.400;12.486;2022-12-20T05:30:33;5.10;1.00
13245;DHT22;6689;53.400;12.486;2022-12-20T05:33:01;5.10;1.00
13245;DHT22;6689;53.400;12.486;2022-12-20T05:35:28;5.10;1.00
13245;DHT22;6689;53.400;12.486;2022-12-20T05:37:56;5.10;1.00
13245;DHT22;6689;53.400;12.486;2022-12-20T05:40:23;5.10;1.00
13245;DHT22;6689;53.400;12.486;2022-12-20T05:42:50;5.10;1.00
13245;DHT22;6689;53.400;12.486;2022-12-20T05:45:18;5.10;1.00
13245;DHT22;6689;53.400;12.486;2022-12-20T05:47:46;5.10;1.00
13245;DHT22;6689;53.400;12.486;2022-12-20T05:50:14;5.10;1.00
13245;DHT22;6689;53.400;12.486;2022-12-20T05:52:42;5.10;1.00
13245;DHT22;6689;53.400;12.486;2022-12-20T05:55:09;5.10;1.00
13245;DHT22;6689;53.400;12.486;2022-12-20T05:57:36;5.10;1.00
13245;DHT22;6689;53.400;12.486;2022-12-20T06:00:05;5.10;1.00
13245;DHT22;6689;53.400;12.486;2022-12-20T06:02:35;5.10;1.00
13245;DHT22;6689;53.400;12.486;2022-12-20T06:05:04;5.10;1.00
13245;DHT22;6689;53.400;12.486;2022-12-20T06:07:32;5.10;1.00
13245;DHT22;6689;53.400;12.486;2022-12-20T06:09:59;5.10;1.00
13245;DHT22;6689;53.400;12.486;2022-12-20T06:12:26;5.10;1.00
13245;DHT22;6689;53.400;12.486;2022-12-20T06:14:53;5.10;1.00
13245;DHT22;6689;53.400;12.486;2022-12-20T06:17:21;5.10;1.00
13245;DHT22;6689;53.400;12.486;2022-12-20T06:19:49;5.10;1.00
13245;DHT22;6689;53.400;12.486;2022-12-20T06:22:17;5.10;1.00
13245;DHT22;6689;53.400;12.486;2022-12-20T06:24:44;5.10;1.00
13245;DHT22;6689;53.400;12.486;2022-12-20T06:27:11;5.10;1.00
13245;DHT22;6689;53.400;12.486;2022-12-20T06:29:39;5.10;1.00
13245;DHT22;6689;53.400;12.486;2022-12-20T06:32:14;5.20;1.00
13245;DHT22;6689;53.400;12.486;2022-12-20T06:34:41;5.10;1.00
13245;DHT22;6689;53.400;12.486;2022-12-20T06:37:11;5.10;1.00
13245;DHT22;6689;53.400;12.486;2022-12-20T06:39:39;5.10;1.00
13245;DHT22;6689;53.400;12.486;2022-12-20T06:42:07;5.10;1.00
13245;DHT22;6689;53.400;12.486;2022-12-20T06:44:35;5.10;1.00
13245;DHT22;6689;53.400;12.486;2022-12-20T06:47:02;5.10;1.00
13245;DHT22;6689;53.400;12.486;2022-12-20T06:49:29;5.20;1.00
13245;DHT22;6689;53.400;12.486;2022-12-20T06:51:56;5.20;1.00
13245;DHT22;6689;53.400;12.486;2022-12-20T06:54:23;5.20;1.00
13245;DHT22;6689;53.400;12.486;2022-12-20T06:56:52;5.20;1.00
13245;DHT22;6689;53.400;12.486;2022-12-20T06:59:20;5.20;1.00
13245;DHT22;6689;53.400;12.486;2022-12-20T07:01:51;5.20;1.00
13245;DHT22;6689;53.400;12.486;2022-12-20T07:04:19;5.20;1.00
13245;DHT22;6689;53.400;12.486;2022-12-20T07:06:46;5.20;1.00
13245;DHT22;6689;53.400;12.486;2022-12-20T07:09:13;5.20;1.00
13245;DHT22;6689;53.400;12.486;2022-12-20T07:11:44;5.20;1.00
13245;DHT22;6689;53.400;12.486;2022-12-20T07:14:12;5.20;1.00
13245;DHT22;6689;53.400;12.486;2022-12-20T07:16:40;5.30;1.00
13245;DHT22;6689;53.400;12.486;2022-12-20T07:19:10;5.20;1.00
13245;DHT22;6689;53.400;12.486;2022-12-20T07:21:37;5.30;1.00
13245;DHT22;6689;53.400;12.486;2022-12-20T07:24:07;5.30;1.00
13245;DHT22;6689;53.400;12.486;2022-12-20T07:26:34;5.30;1.00
13245;DHT22;6689;53.400;12.486;2022-12-20T07:29:02;5.20;7.60
13245;DHT22;6689;53.400;12.486;2022-12-20T07:31:31;5.30;5.40
13245;DHT22;6689;53.400;12.486;2022-12-20T07:33:58;5.30;17.10
13245;DHT22;6689;53.400;12.486;2022-12-20T07:36:25;5.30;25.50
13245;DHT22;6689;53.400;12.486;2022-12-20T07:38:52;5.30;23.30
13245;DHT22;6689;53.400;12.486;2022-12-20T07:41:19;5.40;28.20
13245;DHT22;6689;53.400;12.486;2022-12-20T07:43:47;5.40;37.90
13245;DHT22;6689;53.400;12.486;2022-12-20T07:46:15;5.40;47.40
13245;DHT22;6689;53.400;12.486;2022-12-20T07:48:44;5.40;59.80
13245;DHT22;6689;53.400;12.486;2022-12-20T07:51:14;5.40;72.90
13245;DHT22;6689;53.400;12.486;2022-12-20T07:53:46;5.40;70.40
13245;DHT22;6689;53.400;12.486;2022-12-20T07:56:15;5.50;86.20
13245;DHT22;6689;53.400;12.486;2022-12-20T07:58:44;5.50;99.90
13245;DHT22;6689;53.400;12.486;2022-12-20T08:01:11;5.50;99.90
13245;DHT22;6689;53.400;12.486;2022-12-20T08:03:44;5.50;99.90
13245;DHT22;6689;53.400;12.486;2022-12-20T08:06:16;5.60;99.90
13245;DHT22;6689;53.400;12.486;2022-12-20T08:08:47;5.50;99.90
13245;DHT22;6689;53.400;12.486;2022-12-20T08:11:20;5.60;99.90
13245;DHT22;6689;53.400;12.486;2022-12-20T08:13:48;5.60;99.90
13245;DHT22;6689;53.400;12.486;2022-12-20T08:16:15;5.60;99.90
13245;DHT22;6689;53.400;12.486;2022-12-20T08:18:44;5.60;99.90
13245;DHT22;6689;53.400;12.486;2022-12-20T08:21:12;5.60;99.90
13245;DHT22;6689;53.400;12.486;2022-12-20T08:23:40;5.60;99.90
13245;DHT22;6689;53.400;12.486;2022-12-20T08:26:07;5.70;99.90
13245;DHT22;6689;53.400;12.486;2022-12-20T08:28:35;5.70;99.90
13245;DHT22;6689;53.400;12.486;2022-12-20T08:31:04;5.70;99.90
13245;DHT22;6689;53.400;12.486;2022-12-20T08:33:33;5.70;99.90
13245;DHT22;6689;53.400;12.486;2022-12-20T08:36:04;5.70;99.90
13245;DHT22;6689;53.400;12.486;2022-12-20T08:38:33;5.70;99.90
13245;DHT22;6689;53.400;12.486;2022-12-20T08:41:06;5.80;99.90
13245;DHT22;6689;53.400;12.486;2022-12-20T08:43:36;5.80;99.90
13245;DHT22;6689;53.400;12.486;2022-12-20T08:46:04;5.80;99.90
13245;DHT22;6689;53.400;12.486;2022-12-20T08:48:32;5.90;99.90
13245;DHT22;6689;53.400;12.486;2022-12-20T08:51:03;5.90;99.90
13245;DHT22;6689;53.400;12.486;2022-12-20T08:53:31;5.90;99.90
13245;DHT22;6689;53.400;12.486;2022-12-20T08:56:03;5.90;99.90
13245;DHT22;6689;53.400;12.486;2022-12-20T08:58:31;5.90;99.90
13245;DHT22;6689;53.400;12.486;2022-12-20T09:00:59;6.00;99.90
13245;DHT22;6689;53.400;12.486;2022-12-20T09:03:29;6.00;99.90
13245;DHT22;6689;53.400;12.486;2022-12-20T09:05:59;6.00;99.90
13245;DHT22;6689;53.400;12.486;2022-12-20T09:08:28;6.10;99.90
13245;DHT22;6689;53.400;12.486;2022-12-20T09:11:03;6.10;99.90
13245;DHT22;6689;53.400;12.486;2022-12-20T09:13:30;6.20;99.90
13245;DHT22;6689;53.400;12.486;2022-12-20T09:15:59;6.20;99.90
13245;DHT22;6689;53.400;12.486;2022-12-20T09:18:26;6.20;99.90
13245;DHT22;6689;53.400;12.486;2022-12-20T09:20:54;6.20;99.90
13245;DHT22;6689;53.400;12.486;2022-12-20T09:23:21;6.30;99.90
13245;DHT22;6689;53.400;12.486;2022-12-20T09:25:50;6.20;99.90
13245;DHT22;6689;53.400;12.486;2022-12-20T09:28:17;6.20;99.90
13245;DHT22;6689;53.400;12.486;2022-12-20T09:30:45;6.40;99.90
13245;DHT22;6689;53.400;12.486;2022-12-20T09:33:12;6.40;99.90
13245;DHT22;6689;53.400;12.486;2022-12-20T09:35:44;6.40;99.90
13245;DHT22;6689;53.400;12.486;2022-12-20T09:38:11;6.50;99.90
13245;DHT22;6689;53.400;12.486;2022-12-20T09:40:44;6.40;99.90
13245;DHT22;6689;53.400;12.486;2022-12-20T09:43:15;6.50;99.90
13245;DHT22;6689;53.400;12.486;2022-12-20T09:45:44;6.50;99.90
13245;DHT22;6689;53.400;12.486;2022-12-20T09:48:16;6.60;99.90
13245;DHT22;6689;53.400;12.486;2022-12-20T09:50:52;6.60;99.90
13245;DHT22;6689;53.400;12.486;2022-12-20T09:53:30;6.60;99.90
13245;DHT22;6689;53.400;12.486;2022-12-20T09:56:06;6.70;99.90
13245;DHT22;6689;53.400;12.486;2022-12-20T09:58:47;6.70;99.90
13245;DHT22;6689;53.400;12.486;2022-12-20T10:01:23;6.80;99.90
13245;DHT22;6689;53.400;12.486;2022-12-20T10:03:52;6.70;99.90
13245;DHT22;6689;53.400;12.486;2022-12-20T10:06:27;6.80;99.90
13245;DHT22;6689;53.400;12.486;2022-12-20T10:08:57;6.70;99.90
13245;DHT22;6689;53.400;12.486;2022-12-20T10:11:44;6.80;99.90
13245;DHT22;6689;53.400;12.486;2022-12-20T10:17:26;6.90;99.90
13245;DHT22;6689;53.400;12.486;2022-12-20T10:20:16;6.90;99.90
13245;DHT22;6689;53.400;12.486;2022-12-20T10:22:53;6.90;99.90
13245;DHT22;6689;53.400;12.486;2022-12-20T10:25:23;7.00;99.90
13245;DHT22;6689;53.400;12.486;2022-12-20T10:27:54;7.00;99.90
13245;DHT22;6689;53.400;12.486;2022-12-20T10:30:31;7.10;99.90
13245;DHT22;6689;53.400;12.486;2022-12-20T10:33:00;7.20;99.90
13245;DHT22;6689;53.400;12.486;2022-12-20T10:35:29;7.20;99.90
13245;DHT22;6689;53.400;12.486;2022-12-20T10:38:01;7.20;99.90
13245;DHT22;6689;53.400;12.486;2022-12-20T10:40:31;7.20;99.90
13245;DHT22;6689;53.400;12.486;2022-12-20T10:42:59;7.20;99.90
13245;DHT22;6689;53.400;12.486;2022-12-20T10:45:33;7.30;99.90
13245;DHT22;6689;53.400;12.486;2022-12-20T10:48:02;7.40;99.90
13245;DHT22;6689;53.400;12.486;2022-12-20T10:50:30;7.40;99.90
13245;DHT22;6689;53.400;12.486;2022-12-20T10:53:21;7.40;99.90
13245;DHT22;6689;53.400;12.486;2022-12-20T10:55:50;7.40;99.90
13245;DHT22;6689;53.400;12.486;2022-12-20T10:58:29;7.40;99.90
13245;DHT22;6689;53.400;12.486;2022-12-20T11:01:09;7.50;99.90
13245;DHT22;6689;53.400;12.486;2022-12-20T11:03:52;7.50;99.90
13245;DHT22;6689;53.400;12.486;2022-12-20T11:06:21;7.50;99.90
13245;DHT22;6689;53.400;12.486;2022-12-20T11:08:49;7.50;99.90
13245;DHT22;6689;53.400;12.486;2022-12-20T11:11:19;7.50;99.90
13245;DHT22;6689;53.400;12.486;2022-12-20T11:13:48;7.50;99.90
13245;DHT22;6689;53.400;12.486;2022-12-20T11:16:34;7.50;99.90
13245;DHT22;6689;53.400;12.486;2022-12-20T11:19:22;7.50;99.90
13245;DHT22;6689;53.400;12.486;2022-12-20T11:21:58;7.50;99.90
13245;DHT22;6689;53.400;12.486;2022-12-20T11:24:33;7.50;99.90
13245;DHT22;6689;53.400;12.486;2022-12-20T11:27:14;7.50;99.90
13245;DHT22;6689;53.400;12.486;2022-12-20T11:30:03;7.50;99.90
13245;DHT22;6689;53.400;12.486;2022-12-20T11:32:50;7.50;99.90
13245;DHT22;6689;53.400;12.486;2022-12-20T11:35:26;7.50;99.90
13245;DHT22;6689;53.400;12.486;2022-12-20T11:38:01;7.50;99.90
13245;DHT22;6689;53.400;12.486;2022-12-20T11:40:38;7.50;99.90
13245;DHT22;6689;53.400;12.486;2022-12-20T11:43:36;7.50;99.90
13245;DHT22;6689;53.400;12.486;2022-12-20T11:46:19;7.50;99.90
13245;DHT22;6689;53.400;12.486;2022-12-20T11:49:06;7.50;99.90
13245;DHT22;6689;53.400;12.486;2022-12-20T11:51:41;7.50;99.90
13245;DHT22;6689;53.400;12.486;2022-12-20T11:54:17;7.60;99.90
13245;DHT22;6689;53.400;12.486;2022-12-20T11:56:47;7.60;99.90
13245;DHT22;6689;53.400;12.486;2022-12-20T11:59:23;7.70;99.90
13245;DHT22;6689;53.400;12.486;2022-12-20T12:01:54;7.80;99.90
13245;DHT22;6689;53.400;12.486;2022-12-20T12:04:28;7.90;99.90
13245;DHT22;6689;53.400;12.486;2022-12-20T12:07:00;7.90;99.90
13245;DHT22;6689;53.400;12.486;2022-12-20T12:09:32;7.90;99.90
13245;DHT22;6689;53.400;12.486;2022-12-20T12:12:04;7.70;94.80
13245;DHT22;6689;53.400;12.486;2022-12-20T12:14:49;7.90;99.90
13245;DHT22;6689;53.400;12.486;2022-12-20T12:17:24;7.90;99.90
13245;DHT22;6689;53.400;12.486;2022-12-20T12:20:01;7.90;99.90
13245;DHT22;6689;53.400;12.486;2022-12-20T12:22:35;8.00;99.90
13245;DHT22;6689;53.400;12.486;2022-12-20T12:25:10;7.90;99.90
13245;DHT22;6689;53.400;12.486;2022-12-20T12:27:39;8.00;96.20
13245;DHT22;6689;53.400;12.486;2022-12-20T12:30:11;8.00;84.40
13245;DHT22;6689;53.400;12.486;2022-12-20T12:32:43;8.00;99.90
13245;DHT22;6689;53.400;12.486;2022-12-20T12:35:39;8.00;99.90
13245;DHT22;6689;53.400;12.486;2022-12-20T12:38:30;8.10;87.70
13245;DHT22;6689;53.400;12.486;2022-12-20T12:41:24;8.00;76.70
13245;DHT22;6689;53.400;12.486;2022-12-20T12:43:55;8.10;57.70
13245;DHT22;6689;53.400;12.486;2022-12-20T12:46:27;8.00;37.20
13245;DHT22;6689;53.400;12.486;2022-12-20T12:48:59;8.00;45.10
13245;DHT22;6689;53.400;12.486;2022-12-20T12:51:31;8.00;38.40
13245;DHT22;6689;53.400;12.486;2022-12-20T12:54:15;8.00;33.90
13245;DHT22;6689;53.400;12.486;2022-12-20T12:56:45;8.00;34.20
13245;DHT22;6689;53.400;12.486;2022-12-20T13:02:21;8.00;14.60
13245;DHT22;6689;53.400;12.486;2022-12-20T13:04:54;8.00;6.90
13245;DHT22;6689;53.400;12.486;2022-12-20T13:07:28;8.00;18.20
13245;DHT22;6689;53.400;12.486;2022-12-20T13:13:12;8.00;9.10
13245;DHT22;6689;53.400;12.486;2022-12-20T13:16:09;8.10;12.70
13245;DHT22;6689;53.400;12.486;2022-12-20T13:18:36;8.00;6.00
13245;DHT22;6689;53.400;12.486;2022-12-20T13:21:35;8.00;2.60
13245;DHT22;6689;53.400;12.486;2022-12-20T13:24:38;8.00;1.00
13245;DHT22;6689;53.400;12.486;2022-12-20T13:27:26;7.90;1.00
13245;DHT22;6689;53.400;12.486;2022-12-20T13:36:00;8.00;3.10
13245;DHT22;6689;53.400;12.486;2022-12-20T13:38:51;7.90;1.00
13245;DHT22;6689;53.400;12.486;2022-12-20T13:41:30;7.90;1.00
13245;DHT22;6689;53.400;12.486;2022-12-20T13:44:07;8.00;1.00
13245;DHT22;6689;53.400;12.486;2022-12-20T13:46:41;8.00;1.00
13245;DHT22;6689;53.400;12.486;2022-12-20T13:49:14;7.90;1.00
13245;DHT22;6689;53.400;12.486;2022-12-20T13:51:45;8.00;1.00
13245;DHT22;6689;53.400;12.486;2022-12-20T13:54:16;8.00;1.00
13245;DHT22;6689;53.400;12.486;2022-12-20T13:56:47;7.90;1.00
13245;DHT22;6689;53.400;12.486;2022-12-20T13:59:20;7.90;1.00
13245;DHT22;6689;53.400;12.486;2022-12-20T14:01:50;8.00;1.00
13245;DHT22;6689;53.400;12.486;2022-12-20T14:04:18;8.00;1.00
13245;DHT22;6689;53.400;12.486;2022-12-20T14:06:50;8.00;1.00
13245;DHT22;6689;53.400;12.486;2022-12-20T14:09:30;8.00;1.00
13245;DHT22;6689;53.400;12.486;2022-12-20T14:12:09;8.00;1.00
13245;DHT22;6689;53.400;12.486;2022-12-20T14:14:41;8.00;1.00
13245;DHT22;6689;53.400;12.486;2022-12-20T14:17:16;7.90;1.00
13245;DHT22;6689;53.400;12.486;2022-12-20T14:19:44;8.00;1.00
13245;DHT22;6689;53.400;12.486;2022-12-20T14:22:11;8.00;1.00
13245;DHT22;6689;53.400;12.486;2022-12-20T14:24:40;8.00;1.00
13245;DHT22;6689;53.400;12.486;2022-12-20T14:27:12;8.00;1.00
13245;DHT22;6689;53.400;12.486;2022-12-20T14:29:40;8.00;1.00
13245;DHT22;6689;53.400;12.486;2022-12-20T14:32:17;8.00;1.00
13245;DHT22;6689;53.400;12.486;2022-12-20T14:34:46;8.00;1.00
13245;DHT22;6689;53.400;12.486;2022-12-20T14:37:27;7.90;1.00
13245;DHT22;6689;53.400;12.486;2022-12-20T14:39:59;8.00;1.00
13245;DHT22;6689;53.400;12.486;2022-12-20T14:42:32;8.00;1.00
13245;DHT22;6689;53.400;12.486;2022-12-20T14:45:15;7.90;1.00
13245;DHT22;6689;53.400;12.486;2022-12-20T14:47:49;7.90;1.00
13245;DHT22;6689;53.400;12.486;2022-12-20T14:50:19;7.90;1.00
13245;DHT22;6689;53.400;12.486;2022-12-20T14:52:46;7.90;1.00
13245;DHT22;6689;53.400;12.486;2022-12-20T14:55:16;7.90;1.00
13245;DHT22;6689;53.400;12.486;2022-12-20T14:57:48;7.90;1.00
13245;DHT22;6689;53.400;12.486;2022-12-20T15:00:22;7.90;1.00
13245;DHT22;6689;53.400;12.486;2022-12-20T15:02:56;7.80;1.00
13245;DHT22;6689;53.400;12.486;2022-12-20T15:05:45;7.90;1.00
13245;DHT22;6689;53.400;12.486;2022-12-20T15:08:16;7.80;1.00
13245;DHT22;6689;53.400;12.486;2022-12-20T15:10:49;7.80;1.00
13245;DHT22;6689;53.400;12.486;2022-12-20T15:13:21;7.80;1.00
13245;DHT22;6689;53.400;12.486;2022-12-20T15:15:50;7.80;1.00
13245;DHT22;6689;53.400;12.486;2022-12-20T15:18:19;7.80;1.00
13245;DHT22;6689;53.400;12.486;2022-12-20T15:20:57;7.80;1.00
13245;DHT22;6689;53.400;12.486;2022-12-20T15:23:26;7.80;1.00
13245;DHT22;6689;53.400;12.486;2022-12-20T15:25:53;7.80;1.00
13245;DHT22;6689;53.400;12.486;2022-12-20T15:28:24;7.80;1.00
13245;DHT22;6689;53.400;12.486;2022-12-20T15:30:52;7.80;1.00
13245;DHT22;6689;53.400;12.486;2022-12-20T15:33:21;7.80;1.00
13245;DHT22;6689;53.400;12.486;2022-12-20T15:35:49;7.80;1.00
13245;DHT22;6689;53.400;12.486;2022-12-20T15:38:18;7.80;1.00
13245;DHT22;6689;53.400;12.486;2022-12-20T15:40:47;7.80;1.00
13245;DHT22;6689;53.400;12.486;2022-12-20T15:43:18;7.80;1.00
13245;DHT22;6689;53.400;12.486;2022-12-20T15:45:49;7.80;1.00
13245;DHT22;6689;53.400;12.486;2022-12-20T15:48:18;7.70;1.00
13245;DHT22;6689;53.400;12.486;2022-12-20T15:50:52;7.70;1.00
13245;DHT22;6689;53.400;12.486;2022-12-20T15:53:23;7.70;1.00
13245;DHT22;6689;53.400;12.486;2022-12-20T15:55:54;7.70;1.00
13245;DHT22;6689;53.400;12.486;2022-12-20T15:58:22;7.70;1.00
13245;DHT22;6689;53.400;12.486;2022-12-20T16:00:54;7.60;1.00
13245;DHT22;6689;53.400;12.486;2022-12-20T16:03:28;7.60;1.00
13245;DHT22;6689;53.400;12.486;2022-12-20T16:05:56;7.60;1.00
13245;DHT22;6689;53.400;12.486;2022-12-20T16:08:24;7.60;1.00
13245;DHT22;6689;53.400;12.486;2022-12-20T16:10:51;7.60;1.00
13245;DHT22;6689;53.400;12.486;2022-12-20T16:13:21;7.60;1.00
13245;DHT22;6689;53.400;12.486;2022-12-20T16:15:50;7.60;1.00
13245;DHT22;6689;53.400;12.486;2022-12-20T16:18:18;7.60;1.00
13245;DHT22;6689;53.400;12.486;2022-12-20T16:20:45;7.60;1.00
13245;DHT22;6689;53.400;12.486;2022-12-20T16:23:16;7.60;1.00
13245;DHT22;6689;53.400;12.486;2022-12-20T16:25:44;7.60;1.00
13245;DHT22;6689;53.400;12.486;2022-12-20T16:28:12;7.60;1.00
13245;DHT22;6689;53.400;12.486;2022-12-20T16:30:39;7.60;1.00
13245;DHT22;6689;53.400;12.486;2022-12-20T16:33:18;7.50;1.00
13245;DHT22;6689;53.400;12.486;2022-12-20T16:35:45;7.60;1.00
13245;DHT22;6689;53.400;12.486;2022-12-20T16:38:12;7.60;1.00
13245;DHT22;6689;53.400;12.486;2022-12-20T16:40:40;7.70;1.00